Terminal Aerodrome Forecast
Issued by NWS

Home | Current Version | Previous Version | Text Only | Print | Product List | Glossary On
Versions: 1 2 3 4 5 6 7 8 9 10 11 12 13 14
000
FTAK31 PANC 241458 AAA
TAFATK
TAF AMD
PATK 241458Z 2415/2512 00000KT P6SM VCFG FEW001 BKN100
      TEMPO 2415/2418 2SM BR
     FM241800 36004KT P6SM VCSH BKN080 OVC100
     FM242000 21005KT P6SM -SHRA SCT020 BKN050 OVC070
     FM250300 19005KT P6SM VCSH SCT040 BKN060=

USA.gov is the U.S. government's official web portal to all federal, state and local government web resources and services.